sensor_id;sensor_type;location;lat;lon;timestamp;pressure;altitude;pressure_sealevel;temperature;humidity
9523;BME280;63165;43.016;25.784;2022-12-18T00:01:15;100927.75;;;10.76;100.00
9523;BME280;63165;43.016;25.784;2022-12-18T00:03:43;100925.16;;;10.76;100.00
9523;BME280;63165;43.016;25.784;2022-12-18T00:06:10;100928.63;;;10.81;100.00
9523;BME280;63165;43.016;25.784;2022-12-18T00:08:39;100923.34;;;10.84;100.00
9523;BME280;63165;43.016;25.784;2022-12-18T00:11:08;100936.44;;;10.86;100.00
9523;BME280;63165;43.016;25.784;2022-12-18T00:13:37;100935.59;;;10.87;100.00
9523;BME280;63165;43.016;25.784;2022-12-18T00:16:07;100923.34;;;10.87;100.00
9523;BME280;63165;43.016;25.784;2022-12-18T00:18:35;100934.69;;;10.88;100.00
9523;BME280;63165;43.016;25.784;2022-12-18T00:21:04;100940.78;;;10.90;100.00
9523;BME280;63165;43.016;25.784;2022-12-18T00:23:33;100946.03;;;10.93;100.00
9523;BME280;63165;43.016;25.784;2022-12-18T00:26:03;100953.88;;;10.93;100.00
9523;BME280;63165;43.016;25.784;2022-12-18T00:28:31;100958.25;;;10.94;100.00
9523;BME280;63165;43.016;25.784;2022-12-18T00:31:04;100959.13;;;10.96;100.00
9523;BME280;63165;43.016;25.784;2022-12-18T00:33:32;100948.66;;;10.96;100.00
9523;BME280;63165;43.016;25.784;2022-12-18T00:36:00;100954.75;;;10.94;100.00
9523;BME280;63165;43.016;25.784;2022-12-18T00:38:28;100959.13;;;10.95;100.00
9523;BME280;63165;43.016;25.784;2022-12-18T00:40:55;100958.22;;;10.97;100.00
9523;BME280;63165;43.016;25.784;2022-12-18T00:43:22;100964.34;;;10.95;100.00
9523;BME280;63165;43.016;25.784;2022-12-18T00:45:48;100959.13;;;10.90;100.00
9523;BME280;63165;43.016;25.784;2022-12-18T00:48:17;100955.63;;;10.93;100.00
9523;BME280;63165;43.016;25.784;2022-12-18T00:50:44;100959.13;;;10.95;100.00
9523;BME280;63165;43.016;25.784;2022-12-18T00:53:11;100966.97;;;10.96;100.00
9523;BME280;63165;43.016;25.784;2022-12-18T00:55:39;100957.38;;;10.95;100.00
9523;BME280;63165;43.016;25.784;2022-12-18T00:58:07;100963.50;;;10.93;100.00
9523;BME280;63165;43.016;25.784;2022-12-18T01:00:34;100967.84;;;10.98;100.00
9523;BME280;63165;43.016;25.784;2022-12-18T01:03:02;100967.84;;;10.98;100.00
9523;BME280;63165;43.016;25.784;2022-12-18T01:05:31;100970.44;;;10.94;100.00
9523;BME280;63165;43.016;25.784;2022-12-18T01:07:58;100973.97;;;10.94;100.00
9523;BME280;63165;43.016;25.784;2022-12-18T01:10:26;100977.44;;;10.92;100.00
9523;BME280;63165;43.016;25.784;2022-12-18T01:12:53;100977.44;;;10.92;100.00
9523;BME280;63165;43.016;25.784;2022-12-18T01:15:20;100978.31;;;10.94;100.00
9523;BME280;63165;43.016;25.784;2022-12-18T01:17:47;100974.81;;;10.92;100.00
9523;BME280;63165;43.016;25.784;2022-12-18T01:20:15;100987.91;;;10.95;100.00
9523;BME280;63165;43.016;25.784;2022-12-18T01:22:43;100993.16;;;10.93;100.00
9523;BME280;63165;43.016;25.784;2022-12-18T01:25:10;100988.78;;;10.95;100.00
9523;BME280;63165;43.016;25.784;2022-12-18T01:27:37;100987.06;;;10.93;100.00
9523;BME280;63165;43.016;25.784;2022-12-18T01:30:06;100984.44;;;10.93;100.00
9523;BME280;63165;43.016;25.784;2022-12-18T01:32:33;100991.44;;;10.91;100.00
9523;BME280;63165;43.016;25.784;2022-12-18T01:35:00;101000.16;;;10.88;100.00
9523;BME280;63165;43.016;25.784;2022-12-18T01:37:27;101002.75;;;10.90;100.00
9523;BME280;63165;43.016;25.784;2022-12-18T01:39:56;100997.53;;;10.88;100.00
9523;BME280;63165;43.016;25.784;2022-12-18T01:42:23;100997.53;;;10.80;100.00
9523;BME280;63165;43.016;25.784;2022-12-18T01:45:21;101001.03;;;10.72;100.00
9523;BME280;63165;43.016;25.784;2022-12-18T01:47:51;100990.59;;;10.65;100.00
9523;BME280;63165;43.016;25.784;2022-12-18T01:50:21;100994.97;;;10.62;100.00
9523;BME280;63165;43.016;25.784;2022-12-18T01:52:51;100990.63;;;10.58;100.00
9523;BME280;63165;43.016;25.784;2022-12-18T01:55:26;100992.38;;;10.54;100.00
9523;BME280;63165;43.016;25.784;2022-12-18T01:57:57;100999.34;;;10.51;100.00
9523;BME280;63165;43.016;25.784;2022-12-18T02:00:26;100996.72;;;10.51;100.00
9523;BME280;63165;43.016;25.784;2022-12-18T02:02:54;100995.00;;;10.51;100.00
9523;BME280;63165;43.016;25.784;2022-12-18T02:05:27;101001.94;;;10.49;100.00
9523;BME280;63165;43.016;25.784;2022-12-18T02:08:03;101005.47;;;10.51;100.00
9523;BME280;63165;43.016;25.784;2022-12-18T02:10:43;101001.09;;;10.50;99.97
9523;BME280;63165;43.016;25.784;2022-12-18T02:13:14;101002.84;;;10.49;99.60
9523;BME280;63165;43.016;25.784;2022-12-18T02:15:51;101012.44;;;10.44;99.07
9523;BME280;63165;43.016;25.784;2022-12-18T02:18:24;101014.16;;;10.47;98.29
9523;BME280;63165;43.016;25.784;2022-12-18T02:20:56;101022.03;;;10.44;98.40
9523;BME280;63165;43.016;25.784;2022-12-18T02:23:39;101024.66;;;10.41;97.54
9523;BME280;63165;43.016;25.784;2022-12-18T02:26:26;101022.03;;;10.39;97.17
9523;BME280;63165;43.016;25.784;2022-12-18T02:29:00;101020.28;;;10.41;97.57
9523;BME280;63165;43.016;25.784;2022-12-18T02:31:30;101033.34;;;10.40;97.54
9523;BME280;63165;43.016;25.784;2022-12-18T02:34:02;101035.09;;;10.39;97.39
9523;BME280;63165;43.016;25.784;2022-12-18T02:36:32;101032.50;;;10.38;97.08
9523;BME280;63165;43.016;25.784;2022-12-18T02:39:01;101030.75;;;10.32;96.51
9523;BME280;63165;43.016;25.784;2022-12-18T02:41:31;101034.25;;;10.31;96.38
9523;BME280;63165;43.016;25.784;2022-12-18T02:44:00;101040.28;;;10.28;96.41
9523;BME280;63165;43.016;25.784;2022-12-18T02:46:33;101043.78;;;10.26;95.75
9523;BME280;63165;43.016;25.784;2022-12-18T02:49:14;101042.91;;;10.21;95.87
9523;BME280;63165;43.016;25.784;2022-12-18T02:51:50;101051.66;;;10.21;95.99
9523;BME280;63165;43.016;25.784;2022-12-18T02:54:31;101056.00;;;10.21;95.67
9523;BME280;63165;43.016;25.784;2022-12-18T02:57:10;101062.13;;;10.21;95.59
9523;BME280;63165;43.016;25.784;2022-12-18T02:59:44;101073.44;;;10.20;94.93
9523;BME280;63165;43.016;25.784;2022-12-18T03:02:20;101078.66;;;10.17;94.36
9523;BME280;63165;43.016;25.784;2022-12-18T03:04:57;101077.78;;;10.15;93.91
9523;BME280;63165;43.016;25.784;2022-12-18T03:07:33;101083.03;;;10.12;94.02
9523;BME280;63165;43.016;25.784;2022-12-18T03:10:02;101082.13;;;10.07;93.50
9523;BME280;63165;43.016;25.784;2022-12-18T03:12:35;101089.94;;;10.02;93.77
9523;BME280;63165;43.016;25.784;2022-12-18T03:15:09;101098.69;;;10.01;93.12
9523;BME280;63165;43.016;25.784;2022-12-18T03:17:42;101105.63;;;9.96;92.65
9523;BME280;63165;43.016;25.784;2022-12-18T03:20:14;101109.97;;;9.93;92.44
9523;BME280;63165;43.016;25.784;2022-12-18T03:22:43;101112.59;;;9.93;92.80
9523;BME280;63165;43.016;25.784;2022-12-18T03:25:13;101112.56;;;9.91;91.78
9523;BME280;63165;43.016;25.784;2022-12-18T03:27:46;101126.50;;;9.87;92.21
9523;BME280;63165;43.016;25.784;2022-12-18T03:30:15;101122.16;;;9.84;91.80
9523;BME280;63165;43.016;25.784;2022-12-18T03:32:46;101128.25;;;9.79;90.96
9523;BME280;63165;43.016;25.784;2022-12-18T03:35:22;101135.16;;;9.72;90.79
9523;BME280;63165;43.016;25.784;2022-12-18T03:37:52;101143.00;;;9.69;90.45
9523;BME280;63165;43.016;25.784;2022-12-18T03:40:21;101139.50;;;9.64;90.20
9523;BME280;63165;43.016;25.784;2022-12-18T03:42:56;101148.16;;;9.55;90.28
9523;BME280;63165;43.016;25.784;2022-12-18T03:45:31;101158.59;;;9.52;90.37
9523;BME280;63165;43.016;25.784;2022-12-18T03:48:04;101163.84;;;9.57;90.54
9523;BME280;63165;43.016;25.784;2022-12-18T03:50:41;101154.25;;;9.56;90.75
9523;BME280;63165;43.016;25.784;2022-12-18T03:53:23;101156.00;;;9.52;90.72
9523;BME280;63165;43.016;25.784;2022-12-18T03:55:53;101170.75;;;9.50;90.28
9523;BME280;63165;43.016;25.784;2022-12-18T03:58:25;101169.84;;;9.42;90.47
9523;BME280;63165;43.016;25.784;2022-12-18T04:00:56;101177.69;;;9.40;90.39
9523;BME280;63165;43.016;25.784;2022-12-18T04:03:27;101184.66;;;9.41;89.99
9523;BME280;63165;43.016;25.784;2022-12-18T04:05:55;101187.25;;;9.38;90.49
9523;BME280;63165;43.016;25.784;2022-12-18T04:08:24;101193.34;;;9.39;90.59
9523;BME280;63165;43.016;25.784;2022-12-18T04:10:51;101188.13;;;9.42;90.91
9523;BME280;63165;43.016;25.784;2022-12-18T04:13:24;101194.25;;;9.45;90.70
9523;BME280;63165;43.016;25.784;2022-12-18T04:15:51;101194.25;;;9.45;90.43
9523;BME280;63165;43.016;25.784;2022-12-18T04:18:18;101198.63;;;9.46;90.51
9523;BME280;63165;43.016;25.784;2022-12-18T04:20:46;101210.81;;;9.49;90.91
9523;BME280;63165;43.016;25.784;2022-12-18T04:23:13;101217.81;;;9.48;90.81
9523;BME280;63165;43.016;25.784;2022-12-18T04:25:40;101219.53;;;9.49;90.59
9523;BME280;63165;43.016;25.784;2022-12-18T04:28:08;101220.41;;;9.50;90.25
9523;BME280;63165;43.016;25.784;2022-12-18T04:30:36;101216.91;;;9.49;90.05
9523;BME280;63165;43.016;25.784;2022-12-18T04:33:04;101222.16;;;9.46;90.22
9523;BME280;63165;43.016;25.784;2022-12-18T04:35:31;101224.75;;;9.45;89.60
9523;BME280;63165;43.016;25.784;2022-12-18T04:37:58;101237.78;;;9.43;89.75
9523;BME280;63165;43.016;25.784;2022-12-18T04:40:25;101249.09;;;9.42;89.90
9523;BME280;63165;43.016;25.784;2022-12-18T04:42:52;101245.59;;;9.40;89.74
9523;BME280;63165;43.016;25.784;2022-12-18T04:45:20;101245.59;;;9.37;89.72
9523;BME280;63165;43.016;25.784;2022-12-18T04:47:48;101253.44;;;9.37;89.99
9523;BME280;63165;43.016;25.784;2022-12-18T04:50:15;101246.47;;;9.38;90.05
9523;BME280;63165;43.016;25.784;2022-12-18T04:52:43;101252.53;;;9.38;89.93
9523;BME280;63165;43.016;25.784;2022-12-18T04:55:10;101257.75;;;9.37;89.77
9523;BME280;63165;43.016;25.784;2022-12-18T04:57:37;101261.25;;;9.37;89.39
9523;BME280;63165;43.016;25.784;2022-12-18T05:00:06;101259.44;;;9.28;90.21
9523;BME280;63165;43.016;25.784;2022-12-18T05:02:34;101262.09;;;9.31;90.37
9523;BME280;63165;43.016;25.784;2022-12-18T05:05:03;101268.16;;;9.30;89.78
9523;BME280;63165;43.016;25.784;2022-12-18T05:07:30;101273.38;;;9.29;90.18
9523;BME280;63165;43.016;25.784;2022-12-18T05:09:58;101275.94;;;9.24;89.72
9523;BME280;63165;43.016;25.784;2022-12-18T05:12:25;101281.19;;;9.24;89.32
9523;BME280;63165;43.016;25.784;2022-12-18T05:14:52;101283.75;;;9.21;89.62
9523;BME280;63165;43.016;25.784;2022-12-18T05:17:19;101289.00;;;9.23;89.36
9523;BME280;63165;43.016;25.784;2022-12-18T05:19:47;101289.00;;;9.23;89.28
9523;BME280;63165;43.016;25.784;2022-12-18T05:22:15;101293.31;;;9.21;89.41
9523;BME280;63165;43.016;25.784;2022-12-18T05:24:43;101300.31;;;9.23;89.18
9523;BME280;63165;43.016;25.784;2022-12-18T05:27:10;101314.22;;;9.21;88.92
9523;BME280;63165;43.016;25.784;2022-12-18T05:29:37;101314.22;;;9.24;89.26
9523;BME280;63165;43.016;25.784;2022-12-18T05:32:04;101316.00;;;9.25;88.67
9523;BME280;63165;43.016;25.784;2022-12-18T05:34:31;101326.47;;;9.26;89.15
9523;BME280;63165;43.016;25.784;2022-12-18T05:36:58;101322.06;;;9.22;89.06
9523;BME280;63165;43.016;25.784;2022-12-18T05:39:27;101331.66;;;9.23;89.07
9523;BME280;63165;43.016;25.784;2022-12-18T05:41:55;101336.88;;;9.25;88.76
9523;BME280;63165;43.016;25.784;2022-12-18T05:44:22;101339.50;;;9.25;89.24
9523;BME280;63165;43.016;25.784;2022-12-18T05:46:49;101345.59;;;9.25;88.96
9523;BME280;63165;43.016;25.784;2022-12-18T05:49:16;101349.09;;;9.27;89.01
9523;BME280;63165;43.016;25.784;2022-12-18T05:51:44;101343.84;;;9.23;88.16
9523;BME280;63165;43.016;25.784;2022-12-18T05:54:11;101349.00;;;9.17;88.18
9523;BME280;63165;43.016;25.784;2022-12-18T05:56:40;101346.31;;;9.12;88.32
9523;BME280;63165;43.016;25.784;2022-12-18T05:59:07;101354.13;;;9.10;88.10
9523;BME280;63165;43.016;25.784;2022-12-18T06:01:35;101353.25;;;9.05;88.31
9523;BME280;63165;43.016;25.784;2022-12-18T06:04:03;101367.13;;;9.03;88.62
9523;BME280;63165;43.016;25.784;2022-12-18T06:06:30;101376.69;;;9.02;88.52
9523;BME280;63165;43.016;25.784;2022-12-18T06:08:58;101364.47;;;8.98;88.79
9523;BME280;63165;43.016;25.784;2022-12-18T06:11:27;101374.03;;;8.96;89.29
9523;BME280;63165;43.016;25.784;2022-12-18T06:13:56;101376.63;;;8.94;89.39
9523;BME280;63165;43.016;25.784;2022-12-18T06:16:23;101381.84;;;8.94;89.38
9523;BME280;63165;43.016;25.784;2022-12-18T06:18:50;101399.25;;;8.94;88.97
9523;BME280;63165;43.016;25.784;2022-12-18T06:21:18;101396.59;;;8.91;88.81
9523;BME280;63165;43.016;25.784;2022-12-18T06:23:45;101409.56;;;8.86;89.17
9523;BME280;63165;43.016;25.784;2022-12-18T06:26:12;101415.66;;;8.85;89.16
9523;BME280;63165;43.016;25.784;2022-12-18T06:28:40;101419.09;;;8.83;88.96
9523;BME280;63165;43.016;25.784;2022-12-18T06:31:09;101427.75;;;8.80;88.96
9523;BME280;63165;43.016;25.784;2022-12-18T06:33:37;101435.59;;;8.80;88.59
9523;BME280;63165;43.016;25.784;2022-12-18T06:36:07;101431.19;;;8.76;88.53
9523;BME280;63165;43.016;25.784;2022-12-18T06:38:35;101432.91;;;8.74;89.16
9523;BME280;63165;43.016;25.784;2022-12-18T06:41:06;101445.97;;;8.74;89.23
9523;BME280;63165;43.016;25.784;2022-12-18T06:43:33;101447.69;;;8.75;88.92
9523;BME280;63165;43.016;25.784;2022-12-18T06:46:01;101449.38;;;8.70;89.26
9523;BME280;63165;43.016;25.784;2022-12-18T06:48:30;101450.25;;;8.70;88.96
9523;BME280;63165;43.016;25.784;2022-12-18T06:50:58;101456.34;;;8.71;88.92
9523;BME280;63165;43.016;25.784;2022-12-18T06:53:25;101461.56;;;8.71;89.45
9523;BME280;63165;43.016;25.784;2022-12-18T06:55:53;101463.34;;;8.72;89.20
9523;BME280;63165;43.016;25.784;2022-12-18T06:58:20;101463.34;;;8.72;88.99
9523;BME280;63165;43.016;25.784;2022-12-18T07:00:47;101468.56;;;8.72;88.97
9523;BME280;63165;43.016;25.784;2022-12-18T07:03:14;101472.88;;;8.71;88.95
9523;BME280;63165;43.016;25.784;2022-12-18T07:05:43;101468.47;;;8.67;88.61
9523;BME280;63165;43.016;25.784;2022-12-18T07:08:10;101482.34;;;8.65;88.82
9523;BME280;63165;43.016;25.784;2022-12-18T07:10:41;101482.34;;;8.65;88.78
9523;BME280;63165;43.016;25.784;2022-12-18T07:13:09;101480.59;;;8.62;88.27
9523;BME280;63165;43.016;25.784;2022-12-18T07:15:36;101483.22;;;8.62;88.67
9523;BME280;63165;43.016;25.784;2022-12-18T07:18:03;101490.16;;;8.63;88.65
9523;BME280;63165;43.016;25.784;2022-12-18T07:20:31;101486.69;;;8.63;88.27
9523;BME280;63165;43.016;25.784;2022-12-18T07:23:01;101495.38;;;8.63;88.21
9523;BME280;63165;43.016;25.784;2022-12-18T07:25:29;101491.06;;;8.65;88.05
9523;BME280;63165;43.016;25.784;2022-12-18T07:27:56;101490.19;;;8.65;87.87
9523;BME280;63165;43.016;25.784;2022-12-18T07:30:23;101498.03;;;8.65;87.83
9523;BME280;63165;43.016;25.784;2022-12-18T07:32:51;101502.38;;;8.67;87.96
9523;BME280;63165;43.016;25.784;2022-12-18T07:35:18;101504.97;;;8.64;87.36
9523;BME280;63165;43.016;25.784;2022-12-18T07:37:45;101505.91;;;8.68;87.13
9523;BME280;63165;43.016;25.784;2022-12-18T07:40:14;101503.28;;;8.68;86.97
9523;BME280;63165;43.016;25.784;2022-12-18T07:42:41;101512.78;;;8.66;86.84
9523;BME280;63165;43.016;25.784;2022-12-18T07:45:09;101499.84;;;8.70;87.24
9523;BME280;63165;43.016;25.784;2022-12-18T07:47:37;101505.06;;;8.70;86.66
9523;BME280;63165;43.016;25.784;2022-12-18T07:50:05;101501.59;;;8.73;86.86
9523;BME280;63165;43.016;25.784;2022-12-18T07:52:32;101517.25;;;8.73;86.99
9523;BME280;63165;43.016;25.784;2022-12-18T07:54:59;101516.44;;;8.76;87.23
9523;BME280;63165;43.016;25.784;2022-12-18T07:57:28;101519.06;;;8.76;87.07
9523;BME280;63165;43.016;25.784;2022-12-18T07:59:55;101510.31;;;8.75;86.95
9523;BME280;63165;43.016;25.784;2022-12-18T08:02:22;101517.34;;;8.78;87.12
9523;BME280;63165;43.016;25.784;2022-12-18T08:04:49;101511.34;;;8.83;87.51
9523;BME280;63165;43.016;25.784;2022-12-18T08:07:16;101521.81;;;8.85;86.92
9523;BME280;63165;43.016;25.784;2022-12-18T08:09:43;101524.31;;;8.80;86.94
9523;BME280;63165;43.016;25.784;2022-12-18T08:12:10;101522.59;;;8.81;86.81
9523;BME280;63165;43.016;25.784;2022-12-18T08:14:39;101525.19;;;8.79;86.21
9523;BME280;63165;43.016;25.784;2022-12-18T08:17:06;101531.19;;;8.75;86.63
9523;BME280;63165;43.016;25.784;2022-12-18T08:19:33;101524.28;;;8.77;86.14
9523;BME280;63165;43.016;25.784;2022-12-18T08:22:00;101524.31;;;8.79;85.77
9523;BME280;63165;43.016;25.784;2022-12-18T08:24:28;101527.81;;;8.81;85.71
9523;BME280;63165;43.016;25.784;2022-12-18T08:26:55;101526.13;;;8.84;85.62
9523;BME280;63165;43.016;25.784;2022-12-18T08:29:22;101531.34;;;8.84;85.99
9523;BME280;63165;43.016;25.784;2022-12-18T08:31:51;101528.78;;;8.87;85.57
9523;BME280;63165;43.016;25.784;2022-12-18T08:34:19;101525.38;;;8.93;85.98
9523;BME280;63165;43.016;25.784;2022-12-18T08:36:46;101525.44;;;8.96;85.76
9523;BME280;63165;43.016;25.784;2022-12-18T08:39:13;101538.53;;;9.01;85.67
9523;BME280;63165;43.016;25.784;2022-12-18T08:41:40;101526.38;;;9.03;85.42
9523;BME280;63165;43.016;25.784;2022-12-18T08:44:08;101526.47;;;9.07;85.76
9523;BME280;63165;43.016;25.784;2022-12-18T08:46:53;101530.84;;;9.11;85.06
9523;BME280;63165;43.016;25.784;2022-12-18T08:49:21;101515.19;;;9.11;85.29
9523;BME280;63165;43.016;25.784;2022-12-18T08:51:48;101516.06;;;9.13;85.01
9523;BME280;63165;43.016;25.784;2022-12-18T08:54:20;101524.84;;;9.17;84.61
9523;BME280;63165;43.016;25.784;2022-12-18T08:56:48;101529.97;;;9.12;84.17
9523;BME280;63165;43.016;25.784;2022-12-18T08:59:16;101530.03;;;9.16;84.06
9523;BME280;63165;43.016;25.784;2022-12-18T09:01:43;101522.19;;;9.16;83.27
9523;BME280;63165;43.016;25.784;2022-12-18T09:04:12;101521.31;;;9.15;83.17
9523;BME280;63165;43.016;25.784;2022-12-18T09:06:40;101521.31;;;9.15;82.85
9523;BME280;63165;43.016;25.784;2022-12-18T09:09:09;101525.69;;;9.15;82.85
9523;BME280;63165;43.016;25.784;2022-12-18T09:11:37;101519.66;;;9.20;83.11
9523;BME280;63165;43.016;25.784;2022-12-18T09:14:04;101513.63;;;9.24;83.17
9523;BME280;63165;43.016;25.784;2022-12-18T09:16:32;101515.38;;;9.27;82.78
9523;BME280;63165;43.016;25.784;2022-12-18T09:19:01;101522.34;;;9.29;82.67
9523;BME280;63165;43.016;25.784;2022-12-18T09:21:32;101522.41;;;9.32;82.40
9523;BME280;63165;43.016;25.784;2022-12-18T09:23:59;101524.19;;;9.37;82.54
9523;BME280;63165;43.016;25.784;2022-12-18T09:26:27;101523.34;;;9.38;82.29
9523;BME280;63165;43.016;25.784;2022-12-18T09:28:54;101525.97;;;9.39;81.60
9523;BME280;63165;43.016;25.784;2022-12-18T09:31:23;101529.47;;;9.40;81.87
9523;BME280;63165;43.016;25.784;2022-12-18T09:33:51;101521.66;;;9.41;80.88
9523;BME280;63165;43.016;25.784;2022-12-18T09:36:18;101522.59;;;9.46;80.42
9523;BME280;63165;43.016;25.784;2022-12-18T09:38:47;101523.47;;;9.50;79.93
9523;BME280;63165;43.016;25.784;2022-12-18T09:41:29;101518.25;;;9.50;79.29
9523;BME280;63165;43.016;25.784;2022-12-18T09:44:03;101528.72;;;9.48;79.02
9523;BME280;63165;43.016;25.784;2022-12-18T09:46:35;101531.31;;;9.50;78.43
9523;BME280;63165;43.016;25.784;2022-12-18T09:49:07;101527.00;;;9.52;78.32
9523;BME280;63165;43.016;25.784;2022-12-18T09:51:41;101526.97;;;9.50;77.72
9523;BME280;63165;43.016;25.784;2022-12-18T09:54:16;101517.44;;;9.54;77.96
9523;BME280;63165;43.016;25.784;2022-12-18T09:56:45;101527.97;;;9.62;78.30
9523;BME280;63165;43.016;25.784;2022-12-18T09:59:20;101527.19;;;9.70;78.35
9523;BME280;63165;43.016;25.784;2022-12-18T10:01:48;101531.63;;;9.79;78.17
9523;BME280;63165;43.016;25.784;2022-12-18T10:04:15;101522.97;;;9.83;77.51
9523;BME280;63165;43.016;25.784;2022-12-18T10:06:46;101527.38;;;9.86;77.24
9523;BME280;63165;43.016;25.784;2022-12-18T10:09:27;101524.81;;;9.94;76.79
9523;BME280;63165;43.016;25.784;2022-12-18T10:12:02;101520.53;;;9.99;76.46
9523;BME280;63165;43.016;25.784;2022-12-18T10:14:37;101522.31;;;10.04;76.01
9523;BME280;63165;43.016;25.784;2022-12-18T10:17:14;101518.84;;;10.07;76.08
9523;BME280;63165;43.016;25.784;2022-12-18T10:19:49;101522.38;;;10.15;75.94
9523;BME280;63165;43.016;25.784;2022-12-18T10:22:35;101517.22;;;10.20;74.88
9523;BME280;63165;43.016;25.784;2022-12-18T10:25:19;101518.13;;;10.25;75.09
9523;BME280;63165;43.016;25.784;2022-12-18T10:27:52;101526.84;;;10.25;75.06
9523;BME280;63165;43.016;25.784;2022-12-18T10:30:22;101511.19;;;10.30;74.83
9523;BME280;63165;43.016;25.784;2022-12-18T10:32:50;101516.47;;;10.32;73.85
9523;BME280;63165;43.016;25.784;2022-12-18T10:35:21;101517.31;;;10.32;73.02
9523;BME280;63165;43.016;25.784;2022-12-18T10:38:04;101513.78;;;10.27;72.62
9523;BME280;63165;43.016;25.784;2022-12-18T10:40:48;101518.94;;;10.18;72.17
9523;BME280;63165;43.016;25.784;2022-12-18T10:43:20;101513.66;;;10.15;71.82
9523;BME280;63165;43.016;25.784;2022-12-18T10:46:01;101519.78;;;10.15;71.28
9523;BME280;63165;43.016;25.784;2022-12-18T10:48:29;101525.91;;;10.19;71.80
9523;BME280;63165;43.016;25.784;2022-12-18T10:50:57;101525.06;;;10.21;72.19
9523;BME280;63165;43.016;25.784;2022-12-18T10:53:26;101527.69;;;10.24;71.70
9523;BME280;63165;43.016;25.784;2022-12-18T10:55:58;101529.50;;;10.30;72.28
9523;BME280;63165;43.016;25.784;2022-12-18T10:58:28;101527.81;;;10.35;72.44
9523;BME280;63165;43.016;25.784;2022-12-18T11:01:07;101522.63;;;10.41;70.96
9523;BME280;63165;43.016;25.784;2022-12-18T11:03:36;101524.38;;;10.41;71.13
9523;BME280;63165;43.016;25.784;2022-12-18T11:06:06;101525.28;;;10.44;71.21
9523;BME280;63165;43.016;25.784;2022-12-18T11:08:34;101532.28;;;10.47;70.91
9523;BME280;63165;43.016;25.784;2022-12-18T11:11:07;101530.53;;;10.46;69.94
9523;BME280;63165;43.016;25.784;2022-12-18T11:13:54;101538.38;;;10.46;69.80
9523;BME280;63165;43.016;25.784;2022-12-18T11:16:24;101535.78;;;10.51;69.52
9523;BME280;63165;43.016;25.784;2022-12-18T11:18:51;101535.81;;;10.52;69.17
9523;BME280;63165;43.016;25.784;2022-12-18T11:21:19;101532.34;;;10.56;68.96
9523;BME280;63165;43.016;25.784;2022-12-18T11:23:47;101532.34;;;10.53;68.00
9523;BME280;63165;43.016;25.784;2022-12-18T11:26:18;101534.06;;;10.54;67.93
9523;BME280;63165;43.016;25.784;2022-12-18T11:28:49;101531.47;;;10.56;67.43
9523;BME280;63165;43.016;25.784;2022-12-18T11:31:23;101535.84;;;10.58;67.04
9523;BME280;63165;43.016;25.784;2022-12-18T11:34:03;101536.75;;;10.62;66.76
9523;BME280;63165;43.016;25.784;2022-12-18T11:36:38;101539.34;;;10.62;66.73
9523;BME280;63165;43.016;25.784;2022-12-18T11:39:12;101535.03;;;10.67;66.23
9523;BME280;63165;43.016;25.784;2022-12-18T11:41:49;101539.44;;;10.73;65.59
9523;BME280;63165;43.016;25.784;2022-12-18T11:44:42;101539.47;;;10.77;65.71
9523;BME280;63165;43.016;25.784;2022-12-18T11:47:19;101535.97;;;10.78;65.08
9523;BME280;63165;43.016;25.784;2022-12-18T11:49:49;101542.13;;;10.83;64.76
9523;BME280;63165;43.016;25.784;2022-12-18T11:52:19;101541.28;;;10.83;65.13
9523;BME280;63165;43.016;25.784;2022-12-18T11:54:51;101542.97;;;10.78;65.14
9523;BME280;63165;43.016;25.784;2022-12-18T11:57:28;101549.06;;;10.74;65.31
9523;BME280;63165;43.016;25.784;2022-12-18T12:00:03;101542.91;;;10.67;65.42
9523;BME280;63165;43.016;25.784;2022-12-18T12:02:49;101547.19;;;10.60;65.72
9523;BME280;63165;43.016;25.784;2022-12-18T12:05:39;101549.72;;;10.46;65.46
9523;BME280;63165;43.016;25.784;2022-12-18T12:08:14;101543.56;;;10.38;65.62
9523;BME280;63165;43.016;25.784;2022-12-18T12:10:55;101542.63;;;10.32;65.24
9523;BME280;63165;43.016;25.784;2022-12-18T12:13:41;101550.41;;;10.25;65.94
9523;BME280;63165;43.016;25.784;2022-12-18T12:16:17;101547.75;;;10.22;66.70
9523;BME280;63165;43.016;25.784;2022-12-18T12:19:02;101550.31;;;10.19;66.40
9523;BME280;63165;43.016;25.784;2022-12-18T12:21:36;101551.09;;;10.07;66.05
9523;BME280;63165;43.016;25.784;2022-12-18T12:24:16;101560.56;;;9.96;65.58
9523;BME280;63165;43.016;25.784;2022-12-18T12:26:56;101552.69;;;9.91;65.41
9523;BME280;63165;43.016;25.784;2022-12-18T12:29:39;101564.88;;;9.89;65.37
9523;BME280;63165;43.016;25.784;2022-12-18T12:32:22;101553.50;;;9.84;65.24
9523;BME280;63165;43.016;25.784;2022-12-18T12:35:02;101554.28;;;9.79;65.29
9523;BME280;63165;43.016;25.784;2022-12-18T12:37:42;101566.41;;;9.69;65.55
9523;BME280;63165;43.016;25.784;2022-12-18T12:40:20;101573.34;;;9.68;65.90
9523;BME280;63165;43.016;25.784;2022-12-18T12:42:54;101567.22;;;9.66;65.75
9523;BME280;63165;43.016;25.784;2022-12-18T12:45:45;101575.88;;;9.62;65.59
9523;BME280;63165;43.016;25.784;2022-12-18T12:48:28;101575.03;;;9.62;65.99
9523;BME280;63165;43.016;25.784;2022-12-18T12:51:00;101586.34;;;9.62;66.07
9523;BME280;63165;43.016;25.784;2022-12-18T12:53:35;101580.19;;;9.57;65.55
9523;BME280;63165;43.016;25.784;2022-12-18T12:56:05;101586.25;;;9.55;65.64
9523;BME280;63165;43.016;25.784;2022-12-18T12:58:38;101589.72;;;9.53;65.35
9523;BME280;63165;43.016;25.784;2022-12-18T13:01:23;101599.25;;;9.51;65.06
9523;BME280;63165;43.016;25.784;2022-12-18T13:04:11;101598.41;;;9.51;64.68
9523;BME280;63165;43.016;25.784;2022-12-18T13:06:58;101609.69;;;9.50;64.92
9523;BME280;63165;43.016;25.784;2022-12-18T13:24:50;101634.63;;;9.25;63.60
9523;BME280;63165;43.016;25.784;2022-12-18T13:30:44;101638.88;;;9.20;63.14
9523;BME280;63165;43.016;25.784;2022-12-18T13:33:45;101638.78;;;9.12;63.56